createdAt,value
2022-10-19T00:00:23.122Z,66.43
2022-10-19T00:02:49.481Z,66.48
2022-10-19T00:05:15.895Z,66.71
2022-10-19T00:07:42.432Z,66.70
2022-10-19T00:10:09.262Z,66.69
2022-10-19T00:12:35.877Z,66.62
2022-10-19T00:15:02.362Z,66.35
2022-10-19T00:17:28.935Z,66.52
2022-10-19T00:19:55.621Z,67.19
2022-10-19T00:22:21.979Z,67.03
2022-10-19T00:24:48.380Z,66.96
2022-10-19T00:27:14.943Z,66.86
2022-10-19T00:29:41.279Z,66.90
2022-10-19T00:32:07.613Z,66.99
2022-10-19T00:34:33.956Z,66.89
2022-10-19T00:37:00.523Z,67.13
2022-10-19T00:39:27.017Z,66.95
2022-10-19T00:41:53.370Z,67.26
2022-10-19T00:44:19.638Z,66.56
2022-10-19T00:46:50.187Z,66.86
2022-10-19T00:49:23.374Z,66.88
2022-10-19T00:51:54.826Z,67.27
2022-10-19T00:54:25.681Z,67.41
2022-10-19T00:56:54.797Z,67.28
2022-10-19T00:59:24.738Z,67.50
2022-10-19T01:01:52.545Z,67.61
2022-10-19T01:04:21.952Z,68.65
2022-10-19T01:06:48.608Z,68.79
2022-10-19T01:09:15.010Z,68.67
2022-10-19T01:11:47.471Z,68.92
2022-10-19T01:14:26.481Z,68.67
2022-10-19T01:17:01.319Z,68.28
2022-10-19T01:19:51.380Z,69.27
2022-10-19T01:22:37.939Z,69.81
2022-10-19T01:25:41.474Z,70.04
2022-10-19T01:28:51.765Z,69.62
2022-10-19T01:31:37.685Z,69.48
2022-10-19T01:34:25.846Z,69.38
2022-10-19T01:37:07.807Z,69.45
2022-10-19T01:39:49.087Z,69.21
2022-10-19T01:42:28.156Z,69.57
2022-10-19T01:45:26.342Z,69.82
2022-10-19T01:48:09.954Z,69.88
2022-10-19T01:50:43.197Z,69.81
2022-10-19T01:53:12.314Z,69.45
2022-10-19T01:55:43.208Z,69.09
2022-10-19T01:58:13.828Z,68.75
2022-10-19T02:00:44.996Z,68.97
2022-10-19T02:03:12.767Z,69.22
2022-10-19T02:05:41.666Z,69.17
2022-10-19T02:08:17.159Z,69.11
2022-10-19T02:10:45.539Z,69.59
2022-10-19T02:13:15.165Z,69.40
2022-10-19T02:15:47.340Z,69.08
2022-10-19T02:18:17.734Z,69.07
2022-10-19T02:20:44.518Z,69.01
2022-10-19T02:23:12.228Z,69.43
2022-10-19T02:25:38.678Z,69.28
2022-10-19T02:28:05.743Z,69.06
2022-10-19T02:30:32.149Z,68.62
2022-10-19T02:32:58.635Z,69.00
2022-10-19T02:35:24.957Z,69.12
2022-10-19T02:37:51.592Z,68.37
2022-10-19T02:40:18.135Z,68.78
2022-10-19T02:42:50.974Z,68.00
2022-10-19T02:45:27.447Z,67.27
2022-10-19T02:48:02.044Z,67.12
2022-10-19T02:50:28.655Z,66.89
2022-10-19T02:52:55.006Z,66.60
2022-10-19T02:55:21.432Z,66.59
2022-10-19T02:57:47.857Z,66.75
2022-10-19T03:00:14.644Z,66.52
2022-10-19T03:02:41.045Z,66.05
2022-10-19T03:05:09.146Z,66.20
2022-10-19T03:07:36.355Z,67.00
2022-10-19T03:10:03.242Z,67.12
2022-10-19T03:12:29.791Z,66.91
2022-10-19T03:14:56.123Z,67.20
2022-10-19T03:17:22.439Z,67.70
2022-10-19T03:19:48.759Z,67.66
2022-10-19T03:22:15.243Z,67.91
2022-10-19T03:24:41.564Z,67.83
2022-10-19T03:27:08.122Z,68.27
2022-10-19T03:29:34.448Z,68.41
2022-10-19T03:32:00.767Z,68.65
2022-10-19T03:34:27.079Z,68.54
2022-10-19T03:36:53.451Z,68.81
2022-10-19T03:39:19.766Z,68.11
2022-10-19T03:41:46.311Z,67.79
2022-10-19T03:44:12.750Z,67.04
2022-10-19T03:46:40.019Z,67.19
2022-10-19T03:49:07.154Z,67.51
2022-10-19T03:51:34.279Z,67.79
2022-10-19T03:54:05.471Z,67.66
2022-10-19T03:56:32.623Z,67.86
2022-10-19T03:59:00.895Z,67.86
2022-10-19T04:01:36.142Z,68.40
2022-10-19T04:04:06.518Z,68.69
2022-10-19T04:06:35.548Z,68.65
2022-10-19T04:09:02.960Z,68.21
2022-10-19T04:11:31.144Z,68.50
2022-10-19T04:13:58.541Z,68.99
2022-10-19T04:16:27.037Z,68.58
2022-10-19T04:18:53.451Z,68.47
2022-10-19T04:21:23.609Z,68.89
2022-10-19T04:23:56.851Z,68.44
2022-10-19T04:26:23.462Z,67.94
2022-10-19T04:28:49.822Z,67.44
2022-10-19T04:31:16.226Z,67.80
2022-10-19T04:33:42.551Z,67.98
2022-10-19T04:36:11.407Z,67.74
2022-10-19T04:38:38.650Z,67.75
2022-10-19T04:41:08.367Z,67.95
2022-10-19T04:43:35.415Z,67.30
2022-10-19T04:46:07.328Z,67.79
2022-10-19T04:48:36.090Z,68.04
2022-10-19T04:51:03.031Z,67.61
2022-10-19T04:53:29.446Z,68.48
2022-10-19T04:55:56.005Z,67.86
2022-10-19T04:58:22.485Z,68.11
2022-10-19T05:00:48.992Z,68.55
2022-10-19T05:03:15.538Z,69.14
2022-10-19T05:05:41.930Z,70.42
2022-10-19T05:08:10.444Z,70.44
2022-10-19T05:10:38.009Z,70.78
2022-10-19T05:13:04.540Z,70.76
2022-10-19T05:15:31.515Z,71.53
2022-10-19T05:17:58.135Z,71.47
2022-10-19T05:20:25.065Z,71.24
2022-10-19T05:22:51.591Z,71.55
2022-10-19T05:25:18.209Z,71.26
2022-10-19T05:27:44.589Z,71.47
2022-10-19T05:30:11.104Z,71.49
2022-10-19T05:32:37.423Z,71.33
2022-10-19T05:35:04.008Z,71.22
2022-10-19T05:37:30.325Z,71.14
2022-10-19T05:39:56.639Z,71.01
2022-10-19T05:42:23.041Z,71.83
2022-10-19T05:44:49.355Z,71.53
2022-10-19T05:47:15.706Z,71.02
2022-10-19T05:49:42.028Z,70.97
2022-10-19T05:52:08.362Z,71.04
2022-10-19T05:54:35.954Z,71.33
2022-10-19T05:57:02.766Z,71.25
2022-10-19T05:59:29.094Z,70.63
2022-10-19T06:01:55.619Z,70.96
2022-10-19T06:04:22.151Z,70.71
2022-10-19T06:06:48.667Z,71.09
2022-10-19T06:09:15.091Z,71.07
2022-10-19T06:11:42.689Z,71.72
2022-10-19T06:14:14.380Z,71.65
2022-10-19T06:16:41.360Z,71.70
2022-10-19T06:19:07.667Z,71.93
2022-10-19T06:21:34.557Z,72.47
2022-10-19T06:24:05.271Z,72.94
2022-10-19T06:26:33.216Z,73.23
2022-10-19T06:29:01.308Z,72.80
2022-10-19T06:31:29.830Z,73.17
2022-10-19T06:33:56.411Z,72.97
2022-10-19T06:36:25.870Z,73.53
2022-10-19T06:38:53.123Z,73.66
2022-10-19T06:41:20.840Z,73.25
2022-10-19T06:43:51.549Z,72.88
2022-10-19T06:46:23.520Z,72.86
2022-10-19T06:48:51.590Z,72.18
2022-10-19T06:51:18.701Z,71.84
2022-10-19T06:53:45.135Z,72.42
2022-10-19T06:56:11.576Z,72.11
2022-10-19T06:58:38.441Z,72.30
2022-10-19T07:01:07.795Z,72.66
2022-10-19T07:03:34.736Z,72.98
2022-10-19T07:06:03.972Z,72.55
2022-10-19T07:08:32.755Z,72.06
2022-10-19T07:11:02.075Z,72.47
2022-10-19T07:13:30.087Z,72.21
2022-10-19T07:16:02.651Z,71.78
2022-10-19T07:18:29.443Z,72.08
2022-10-19T07:21:01.268Z,73.06
2022-10-19T07:23:29.355Z,72.29
2022-10-19T07:26:00.831Z,72.34
2022-10-19T07:28:29.481Z,72.27
2022-10-19T07:30:56.402Z,72.30
2022-10-19T07:33:22.906Z,72.43
2022-10-19T07:35:49.543Z,72.44
2022-10-19T07:38:15.872Z,72.88
2022-10-19T07:40:44.876Z,72.79
2022-10-19T07:43:13.709Z,73.08
2022-10-19T07:45:40.023Z,72.78
2022-10-19T07:48:06.462Z,72.76
2022-10-19T07:50:32.939Z,72.63
2022-10-19T07:52:59.281Z,72.81
2022-10-19T07:55:25.584Z,73.18
2022-10-19T07:57:51.902Z,72.80
2022-10-19T08:00:18.418Z,72.86
2022-10-19T08:03:05.101Z,72.45
2022-10-19T08:05:35.221Z,71.92
2022-10-19T08:08:01.587Z,71.80
2022-10-19T08:10:28.158Z,72.14
2022-10-19T08:12:54.490Z,72.28
2022-10-19T08:15:20.874Z,72.44
2022-10-19T08:17:47.460Z,72.36
2022-10-19T08:20:13.870Z,72.05
2022-10-19T08:22:41.739Z,72.33
2022-10-19T08:25:08.338Z,72.28
2022-10-19T08:30:06.526Z,72.25
2022-10-19T08:32:33.221Z,72.65
2022-10-19T08:34:59.725Z,72.28
2022-10-19T08:37:44.066Z,72.18
2022-10-19T08:40:22.847Z,72.48
2022-10-19T08:43:01.500Z,72.22
2022-10-19T08:45:38.873Z,72.05
2022-10-19T08:48:25.999Z,72.52
2022-10-19T08:50:53.333Z,72.12
2022-10-19T08:53:49.806Z,72.46
2022-10-19T08:56:51.021Z,72.42
2022-10-19T08:59:21.818Z,72.73
2022-10-19T09:01:54.854Z,72.84
2022-10-19T09:04:31.202Z,72.76
2022-10-19T09:07:09.950Z,72.39
2022-10-19T09:12:20.408Z,72.41
2022-10-19T09:15:01.196Z,72.82
2022-10-19T09:17:28.587Z,72.48
2022-10-19T09:19:54.972Z,72.75
2022-10-19T09:22:28.937Z,72.61
2022-10-19T09:25:03.313Z,72.68
2022-10-19T09:27:38.921Z,73.25
2022-10-19T09:30:15.755Z,72.95
2022-10-19T09:32:42.811Z,72.64
2022-10-19T09:35:21.816Z,72.88
2022-10-19T09:37:50.979Z,72.76
2022-10-19T09:40:21.140Z,72.54
2022-10-19T09:42:53.059Z,72.01
2022-10-19T09:45:34.719Z,71.92
2022-10-19T09:48:12.198Z,71.74
2022-10-19T09:50:44.001Z,71.65
2022-10-19T09:53:19.614Z,71.51
2022-10-19T09:55:50.691Z,71.19
2022-10-19T09:58:20.093Z,71.01
2022-10-19T10:00:51.892Z,71.06
2022-10-19T10:03:28.369Z,70.81
2022-10-19T10:06:02.388Z,71.09
2022-10-19T10:08:36.138Z,70.43
2022-10-19T10:11:13.148Z,70.83
2022-10-19T10:13:42.485Z,70.71
2022-10-19T10:16:16.682Z,70.64
2022-10-19T10:19:07.027Z,71.14
2022-10-19T10:21:46.276Z,71.22
2022-10-19T10:24:12.531Z,70.90
2022-10-19T10:26:44.253Z,71.41
2022-10-19T10:29:20.686Z,70.98
2022-10-19T10:32:10.776Z,71.30
2022-10-19T10:35:02.703Z,71.07
2022-10-19T10:37:41.385Z,71.71
2022-10-19T10:40:29.803Z,71.49
2022-10-19T10:43:32.581Z,71.93
2022-10-19T10:46:16.771Z,71.66
2022-10-19T10:48:53.375Z,71.94
2022-10-19T10:51:27.763Z,71.64
2022-10-19T10:54:14.906Z,71.50
2022-10-19T10:56:42.907Z,71.48
2022-10-19T10:59:19.679Z,71.02
2022-10-19T11:02:09.773Z,71.27
2022-10-19T11:04:40.958Z,71.59
2022-10-19T11:07:18.099Z,70.98
2022-10-19T11:09:50.924Z,71.00
2022-10-19T11:12:23.890Z,70.91
2022-10-19T11:15:23.068Z,71.06
2022-10-19T11:18:28.542Z,70.35
2022-10-19T11:21:09.838Z,70.62
2022-10-19T11:23:51.088Z,70.56
2022-10-19T11:26:39.378Z,70.32
2022-10-19T11:29:34.782Z,69.61
2022-10-19T11:32:01.250Z,69.80
2022-10-19T11:34:57.216Z,70.17
2022-10-19T11:38:17.458Z,70.11
2022-10-19T11:40:54.180Z,70.77
2022-10-19T11:43:42.816Z,69.91
2022-10-19T11:46:25.106Z,69.76
2022-10-19T11:49:03.089Z,69.26
2022-10-19T11:51:44.559Z,68.53
2022-10-19T11:54:34.470Z,67.99
2022-10-19T11:57:12.340Z,67.68
2022-10-19T11:59:47.479Z,67.30
2022-10-19T12:02:43.961Z,67.42
2022-10-19T12:05:19.714Z,66.76
2022-10-19T12:07:56.617Z,67.07
2022-10-19T12:10:32.263Z,66.35
2022-10-19T12:13:05.426Z,66.02
2022-10-19T12:15:48.485Z,65.81
2022-10-19T12:18:49.894Z,65.73
2022-10-19T12:21:29.301Z,65.61
2022-10-19T12:23:58.821Z,65.02
2022-10-19T12:26:30.262Z,65.23
2022-10-19T12:29:04.209Z,64.83
2022-10-19T12:31:31.427Z,64.80
2022-10-19T12:34:08.082Z,64.43
2022-10-19T12:36:54.127Z,64.06
2022-10-19T12:39:23.363Z,63.98
2022-10-19T12:41:58.766Z,63.22
2022-10-19T12:45:03.846Z,63.43
2022-10-19T12:47:30.390Z,63.50
2022-10-19T12:49:57.982Z,63.43
2022-10-19T12:52:41.992Z,62.85
2022-10-19T12:55:24.915Z,62.74
2022-10-19T12:58:08.908Z,61.96
2022-10-19T13:00:39.365Z,61.73
2022-10-19T13:03:26.218Z,61.64
2022-10-19T13:06:12.832Z,61.51
2022-10-19T13:08:48.665Z,61.23
2022-10-19T13:11:18.507Z,60.60
2022-10-19T13:13:58.518Z,60.64
2022-10-19T13:16:28.254Z,59.98
2022-10-19T13:19:12.878Z,59.06
2022-10-19T13:21:51.415Z,58.07
2022-10-19T13:24:26.249Z,57.66
2022-10-19T13:27:01.998Z,57.72
2022-10-19T13:29:40.660Z,57.10
2022-10-19T13:32:33.635Z,57.38
2022-10-19T13:35:23.608Z,57.13
2022-10-19T13:38:08.798Z,57.47
2022-10-19T13:40:56.446Z,57.34
2022-10-19T13:43:26.895Z,58.10
2022-10-19T13:45:59.370Z,57.35
2022-10-19T13:48:38.260Z,57.35
2022-10-19T13:51:22.911Z,56.45
2022-10-19T13:54:06.070Z,56.39
2022-10-19T13:57:32.208Z,56.46
2022-10-19T14:00:19.742Z,56.49
2022-10-19T14:03:11.842Z,56.42
2022-10-19T14:06:13.406Z,56.49
2022-10-19T14:09:13.633Z,57.08
2022-10-19T14:11:42.826Z,57.10
2022-10-19T14:14:09.152Z,56.76
2022-10-19T14:16:44.388Z,57.10
2022-10-19T14:19:13.825Z,57.41
2022-10-19T14:21:40.363Z,58.10
2022-10-19T14:24:28.999Z,58.38
2022-10-19T14:26:56.172Z,58.58
2022-10-19T14:29:22.567Z,59.31
2022-10-19T14:31:49.132Z,59.11
2022-10-19T14:34:16.394Z,59.74
2022-10-19T14:36:48.812Z,59.61
2022-10-19T14:39:24.338Z,60.45
2022-10-19T14:41:54.670Z,61.27
2022-10-19T14:44:38.358Z,61.22
2022-10-19T14:47:27.768Z,61.23
2022-10-19T14:49:54.254Z,61.48
2022-10-19T14:52:31.266Z,61.26
2022-10-19T14:55:00.964Z,61.66
2022-10-19T14:57:32.359Z,61.68
2022-10-19T15:00:21.104Z,61.63
2022-10-19T15:03:01.854Z,62.48
2022-10-19T15:05:32.783Z,62.41
2022-10-19T15:08:11.313Z,62.46
2022-10-19T15:10:43.156Z,62.34
2022-10-19T15:13:26.161Z,62.67
2022-10-19T15:15:54.517Z,62.59
2022-10-19T15:18:44.134Z,62.78
2022-10-19T15:21:18.415Z,62.74
2022-10-19T15:23:50.458Z,62.90
2022-10-19T15:26:21.223Z,62.74
2022-10-19T15:28:48.964Z,62.77
2022-10-19T15:31:21.241Z,62.78
2022-10-19T15:34:01.881Z,62.72
2022-10-19T15:36:30.598Z,62.79
2022-10-19T15:39:17.780Z,63.36
2022-10-19T15:41:52.166Z,63.74
2022-10-19T15:44:43.555Z,63.99
2022-10-19T15:47:16.152Z,63.88
2022-10-19T15:49:42.433Z,63.44
2022-10-19T15:52:17.038Z,63.39
2022-10-19T15:54:43.383Z,62.20
2022-10-19T15:57:26.174Z,62.60
2022-10-19T15:59:53.214Z,63.11
2022-10-19T16:02:19.566Z,63.15
2022-10-19T16:04:45.896Z,63.66
2022-10-19T16:07:19.635Z,62.86
2022-10-19T16:09:45.963Z,62.82
2022-10-19T16:12:12.331Z,63.59
2022-10-19T16:14:38.868Z,63.61
2022-10-19T16:17:05.347Z,63.73
2022-10-19T16:19:31.723Z,64.23
2022-10-19T16:21:58.066Z,64.55
2022-10-19T16:24:24.707Z,64.63
2022-10-19T16:26:51.092Z,64.15
2022-10-19T16:29:17.468Z,64.27
2022-10-19T16:31:43.777Z,64.13
2022-10-19T16:34:10.106Z,64.15
2022-10-19T16:36:36.435Z,64.16
2022-10-19T16:39:04.328Z,64.24
2022-10-19T16:41:31.611Z,64.16
2022-10-19T16:43:58.053Z,64.38
2022-10-19T16:46:24.951Z,64.81
2022-10-19T16:48:52.693Z,64.82
2022-10-19T16:51:29.970Z,65.12
2022-10-19T16:53:57.859Z,65.08
2022-10-19T16:56:26.481Z,64.99
2022-10-19T16:58:54.831Z,65.06
2022-10-19T17:01:21.643Z,65.19
2022-10-19T17:03:49.423Z,65.34
2022-10-19T17:06:17.436Z,64.67
2022-10-19T17:09:23.263Z,65.14
2022-10-19T17:11:33.246Z,64.98
2022-10-19T17:14:02.705Z,65.04
2022-10-19T17:16:31.355Z,64.89
2022-10-19T17:19:00.180Z,64.84
2022-10-19T17:21:29.083Z,65.02
2022-10-19T17:23:58.243Z,65.08
2022-10-19T17:26:36.551Z,65.09
2022-10-19T17:29:04.818Z,64.89
2022-10-19T17:31:31.444Z,65.21
2022-10-19T17:34:01.872Z,65.20
2022-10-19T17:36:31.814Z,65.43
2022-10-19T17:39:11.231Z,65.69
2022-10-19T17:41:37.913Z,65.70
2022-10-19T17:44:07.052Z,65.66
2022-10-19T17:46:35.439Z,65.76
2022-10-19T17:49:02.838Z,66.18
2022-10-19T17:51:34.560Z,66.37
2022-10-19T17:54:04.516Z,66.05
2022-10-19T17:56:31.204Z,65.78
2022-10-19T17:58:58.430Z,65.67
2022-10-19T18:01:25.720Z,65.14
2022-10-19T18:03:52.309Z,64.81
2022-10-19T18:06:31.479Z,65.08
2022-10-19T18:08:59.832Z,64.98
2022-10-19T18:11:28.939Z,65.03
2022-10-19T18:13:57.928Z,65.10
2022-10-19T18:16:28.277Z,65.03
2022-10-19T18:18:57.088Z,65.21
2022-10-19T18:21:25.821Z,65.49
2022-10-19T18:23:53.819Z,65.70
2022-10-19T18:26:22.361Z,65.81
2022-10-19T18:28:50.334Z,65.49
2022-10-19T18:31:19.571Z,65.83
2022-10-19T18:33:47.624Z,66.23
2022-10-19T18:36:13.961Z,66.65
2022-10-19T18:38:40.711Z,66.55
2022-10-19T18:41:11.603Z,66.99
2022-10-19T18:43:38.939Z,66.80
2022-10-19T18:46:05.780Z,66.92
2022-10-19T18:48:32.428Z,66.84
2022-10-19T18:51:03.893Z,66.91
2022-10-19T18:53:30.610Z,67.26
2022-10-19T18:56:02.378Z,67.10
2022-10-19T18:58:31.563Z,67.02
2022-10-19T19:01:13.035Z,66.64
2022-10-19T19:03:43.162Z,66.13
2022-10-19T19:06:15.176Z,66.41
2022-10-19T19:08:41.757Z,66.03
2022-10-19T19:11:33.102Z,66.10
2022-10-19T19:14:07.650Z,66.27
2022-10-19T19:19:48.668Z,66.02
2022-10-19T19:22:19.406Z,65.84
2022-10-19T19:24:45.812Z,66.96
2022-10-19T19:27:12.154Z,66.35
2022-10-19T19:29:48.661Z,66.53
2022-10-19T19:32:17.921Z,66.35
2022-10-19T19:35:00.798Z,66.15
2022-10-19T19:37:27.129Z,66.68
2022-10-19T19:39:56.502Z,66.16
2022-10-19T19:42:27.977Z,66.02
2022-10-19T19:45:12.357Z,65.89
2022-10-19T19:48:08.419Z,66.06
2022-10-19T19:50:36.394Z,66.00
2022-10-19T19:54:03.385Z,65.86
2022-10-19T19:56:30.174Z,66.20
2022-10-19T19:58:59.128Z,66.09
2022-10-19T20:01:26.883Z,66.70
2022-10-19T20:03:53.424Z,66.22
2022-10-19T20:06:23.539Z,66.64
2022-10-19T20:08:52.358Z,66.72
2022-10-19T20:11:19.181Z,66.43
2022-10-19T20:13:46.077Z,66.63
2022-10-19T20:16:15.533Z,66.60
2022-10-19T20:18:44.876Z,67.06
2022-10-19T20:21:12.386Z,66.82
2022-10-19T20:23:38.890Z,66.79
2022-10-19T20:26:05.549Z,66.63
2022-10-19T20:28:33.332Z,66.71
2022-10-19T20:31:02.133Z,67.04
2022-10-19T20:33:30.046Z,67.69
2022-10-19T20:35:56.381Z,68.84
2022-10-19T20:38:25.074Z,68.42
2022-10-19T20:40:52.001Z,69.03
2022-10-19T20:43:18.321Z,69.85
2022-10-19T20:45:44.723Z,69.70
2022-10-19T20:48:11.109Z,68.98
2022-10-19T20:50:37.475Z,69.42
2022-10-19T20:53:03.816Z,69.48
2022-10-19T20:55:36.413Z,69.79
2022-10-19T20:58:02.793Z,70.33
2022-10-19T21:00:29.190Z,69.83
2022-10-19T21:02:55.640Z,69.80
2022-10-19T21:05:22.444Z,70.24
2022-10-19T21:07:48.769Z,70.48
2022-10-19T21:10:15.394Z,70.59
2022-10-19T21:12:41.909Z,70.55
2022-10-19T21:15:08.593Z,70.62
2022-10-19T21:17:35.074Z,70.57
2022-10-19T21:20:01.581Z,70.65
2022-10-19T21:22:27.957Z,70.80
2022-10-19T21:24:54.418Z,70.88
2022-10-19T21:27:20.731Z,71.21
2022-10-19T21:29:47.033Z,70.89
2022-10-19T21:32:13.353Z,70.69
2022-10-19T21:34:39.696Z,70.17
2022-10-19T21:37:06.021Z,69.94
2022-10-19T21:39:32.390Z,70.46
2022-10-19T21:42:17.602Z,69.54
2022-10-19T21:44:46.463Z,70.07
2022-10-19T21:47:31.684Z,69.83
2022-10-19T21:53:09.231Z,70.41
2022-10-19T21:55:41.125Z,70.10
2022-10-19T21:58:07.736Z,70.12
2022-10-19T22:00:34.257Z,69.72
2022-10-19T22:03:00.812Z,69.50
2022-10-19T22:05:39.109Z,69.50
2022-10-19T22:08:05.874Z,69.39
2022-10-19T22:10:32.245Z,69.07
2022-10-19T22:12:59.272Z,69.01
2022-10-19T22:15:41.332Z,69.24
2022-10-19T22:18:08.726Z,69.32
2022-10-19T22:20:37.288Z,69.74
2022-10-19T22:23:07.515Z,69.79
2022-10-19T22:25:35.799Z,70.26
2022-10-19T22:28:02.417Z,69.46
2022-10-19T22:30:28.834Z,69.13
2022-10-19T22:32:55.806Z,69.02
2022-10-19T22:35:25.370Z,69.02
2022-10-19T22:37:54.923Z,68.84
2022-10-19T22:40:44.306Z,69.06
2022-10-19T22:44:10.291Z,69.14
2022-10-19T22:47:33.005Z,68.92
2022-10-19T22:50:55.601Z,69.28
2022-10-19T22:53:23.345Z,69.44
2022-10-19T22:55:49.847Z,69.45
2022-10-19T22:58:20.009Z,69.53
2022-10-19T23:00:46.399Z,69.88
2022-10-19T23:03:12.708Z,69.75
2022-10-19T23:05:39.205Z,69.75
2022-10-19T23:08:05.719Z,69.91
2022-10-19T23:10:49.807Z,69.60
2022-10-19T23:13:16.182Z,69.33
2022-10-19T23:15:44.077Z,68.61
2022-10-19T23:18:11.406Z,69.06
2022-10-19T23:20:40.949Z,68.96
2022-10-19T23:23:25.889Z,68.62
2022-10-19T23:26:30.150Z,68.55
2022-10-19T23:29:05.405Z,68.47
2022-10-19T23:31:36.549Z,68.24
2022-10-19T23:34:02.903Z,68.21
2022-10-19T23:36:41.467Z,68.66
2022-10-19T23:39:10.859Z,68.66
2022-10-19T23:41:37.212Z,68.41
2022-10-19T23:44:09.227Z,68.27
2022-10-19T23:46:42.996Z,68.03
2022-10-19T23:49:12.314Z,67.88
2022-10-19T23:51:41.874Z,69.00
2022-10-19T23:54:08.222Z,68.17
2022-10-19T23:56:53.560Z,67.75
2022-10-19T23:59:20.029Z,67.67
